Time;durP1;ratioP1;P1;durP2;ratioP2;P2;SDS_P1;SDS_P2;PMS_P1;PMS_P2;Temp;Humidity;BMP_temperature;BMP_pressure;BME280_temperature;BME280_humidity;BME280_pressure;Samples;Min_cycle;Max_cycle;Signal;HPM_P1;HPM_P2
2023/04/07 00:02:06;;;;;;;13.30;10.82;;;0.50;99.90;;;;;;5057629;28;20778;-56
2023/04/07 00:04:32;;;;;;;13.80;10.38;;;0.50;99.90;;;;;;5058501;28;20511;-58
2023/04/07 00:06:58;;;;;;;12.75;10.63;;;0.50;99.90;;;;;;5058846;28;20031;-57
2023/04/07 00:09:23;;;;;;;11.15;9.95;;;0.50;99.90;;;;;;5058736;28;20029;-58
2023/04/07 00:11:50;;;;;;;12.23;11.05;;;0.50;99.90;;;;;;5059805;28;20555;-57
2023/04/07 00:14:15;;;;;;;11.90;10.05;;;0.40;99.90;;;;;;5058815;28;20043;-56
2023/04/07 00:16:41;;;;;;;13.63;10.85;;;0.40;99.90;;;;;;5056865;28;20025;-58
2023/04/07 00:19:06;;;;;;;13.07;10.30;;;0.30;99.90;;;;;;5055985;28;20764;-57
2023/04/07 00:21:32;;;;;;;13.35;10.88;;;0.30;99.90;;;;;;5060995;28;20505;-57
2023/04/07 00:23:58;;;;;;;15.65;10.32;;;0.20;99.90;;;;;;5058614;28;20051;-58
2023/04/07 00:26:25;;;;;;;12.98;11.15;;;0.20;99.90;;;;;;5062517;28;20036;-58
2023/04/07 00:28:51;;;;;;;11.25;10.15;;;0.20;99.90;;;;;;5061450;28;20031;-57
2023/04/07 00:31:17;;;;;;;11.88;10.63;;;0.10;99.90;;;;;;5061134;28;20028;-58
2023/04/07 00:33:42;;;;;;;11.55;10.38;;;0.10;99.90;;;;;;5063402;28;20024;-56
2023/04/07 00:36:08;;;;;;;11.73;9.75;;;0.00;99.90;;;;;;5059700;28;21508;-57
2023/04/07 00:38:34;;;;;;;14.15;10.98;;;0.00;99.90;;;;;;5061474;28;20096;-57
2023/04/07 00:41:00;;;;;;;14.68;11.15;;;-0.10;99.90;;;;;;5063932;28;20527;-56
2023/04/07 00:43:26;;;;;;;18.13;12.55;;;-0.10;99.90;;;;;;5061980;28;20055;-56
2023/04/07 00:45:53;;;;;;;16.13;12.68;;;-0.10;99.90;;;;;;5061671;28;20017;-58
2023/04/07 00:48:19;;;;;;;16.65;11.73;;;-0.10;99.90;;;;;;5063096;28;20075;-58
2023/04/07 00:50:45;;;;;;;12.85;9.60;;;-0.20;99.90;;;;;;5066245;28;20025;-57
2023/04/07 00:53:11;;;;;;;14.52;11.27;;;-0.20;99.90;;;;;;5063168;28;20060;-57
2023/04/07 00:55:37;;;;;;;13.25;10.70;;;-0.10;99.90;;;;;;5064030;28;20025;-58
2023/04/07 00:58:05;;;;;;;11.73;10.02;;;-0.20;99.90;;;;;;5065039;28;20028;-57
2023/04/07 01:00:41;;;;;;;12.20;10.48;;;-0.20;99.90;;;;;;5064282;28;20020;-56
2023/04/07 01:03:20;;;;;;;21.33;11.75;;;-0.10;99.90;;;;;;5062560;28;20043;-58
2023/04/07 01:05:46;;;;;;;47.28;17.00;;;-0.10;99.90;;;;;;5060638;28;20060;-57
2023/04/07 01:08:29;;;;;;;23.75;13.98;;;-0.10;99.90;;;;;;5064248;28;20052;-56
2023/04/07 01:11:07;;;;;;;17.08;11.32;;;-0.10;99.90;;;;;;5062436;28;20029;-58
2023/04/07 01:13:40;;;;;;;17.48;11.35;;;-0.10;99.90;;;;;;5062093;28;20020;-57
2023/04/07 01:16:11;;;;;;;22.48;11.65;;;-0.10;99.90;;;;;;5063099;28;20025;-58
2023/04/07 01:18:38;;;;;;;12.40;11.07;;;-0.20;99.90;;;;;;5061925;28;20033;-57
2023/04/07 01:21:12;;;;;;;14.23;12.10;;;-0.20;99.90;;;;;;5061324;28;20044;-58
2023/04/07 01:24:16;;;;;;;13.52;11.18;;;-0.20;99.90;;;;;;5063035;28;20867;-57
2023/04/07 01:26:42;;;;;;;46.45;18.75;;;-0.20;99.90;;;;;;5060129;28;20039;-58
2023/04/07 01:29:30;;;;;;;46.72;19.65;;;-0.20;99.90;;;;;;5064861;28;20587;-58
2023/04/07 01:31:58;;;;;;;21.67;14.82;;;-0.20;99.90;;;;;;5061657;28;20527;-58
2023/04/07 01:34:27;;;;;;;26.30;14.23;;;-0.20;99.90;;;;;;5062658;28;20021;-58
2023/04/07 01:36:54;;;;;;;24.55;14.32;;;-0.20;99.90;;;;;;5059314;28;20106;-58
2023/04/07 01:39:21;;;;;;;21.17;13.73;;;-0.20;99.90;;;;;;5061570;28;20424;-58
2023/04/07 01:41:48;;;;;;;17.17;12.80;;;-0.30;99.90;;;;;;5060673;28;20048;-57
2023/04/07 01:44:14;;;;;;;12.02;10.75;;;-0.30;99.90;;;;;;5060714;28;20105;-56
2023/04/07 01:46:40;;;;;;;15.60;11.98;;;-0.30;99.90;;;;;;5064328;28;20039;-58
2023/04/07 01:49:06;;;;;;;13.88;12.40;;;-0.30;99.90;;;;;;5062717;28;20028;-57
2023/04/07 01:51:33;;;;;;;15.63;11.38;;;-0.30;99.90;;;;;;5061035;28;20036;-57
2023/04/07 01:54:01;;;;;;;13.77;12.23;;;-0.30;99.90;;;;;;5060838;28;20606;-56
2023/04/07 01:56:27;;;;;;;13.88;11.32;;;-0.30;99.90;;;;;;5061423;28;20024;-58
2023/04/07 01:58:52;;;;;;;14.57;11.95;;;-0.40;99.90;;;;;;5060587;28;20044;-58
2023/04/07 02:01:18;;;;;;;15.52;11.65;;;-0.30;99.90;;;;;;5062695;28;20025;-57
2023/04/07 02:03:52;;;;;;;14.40;11.40;;;-0.30;99.90;;;;;;5060850;28;20752;-58
2023/04/07 02:06:23;;;;;;;50.88;20.90;;;-0.10;99.90;;;;;;5057586;28;20029;-57
2023/04/07 02:08:53;;;;;;;36.35;17.13;;;-0.10;99.90;;;;;;5060101;28;20108;-57
2023/04/07 02:11:21;;;;;;;22.52;13.40;;;-0.10;99.90;;;;;;5060774;28;20115;-58
2023/04/07 02:13:47;;;;;;;15.13;12.23;;;-0.20;99.90;;;;;;5064463;28;20397;-57
2023/04/07 02:16:15;;;;;;;33.50;16.85;;;-0.30;99.90;;;;;;5060267;28;20016;-57
2023/04/07 02:18:42;;;;;;;44.80;20.42;;;-0.30;99.90;;;;;;5062418;28;20044;-57
2023/04/07 02:21:10;;;;;;;27.42;14.93;;;-0.30;99.90;;;;;;5059651;28;20041;-58
2023/04/07 02:23:36;;;;;;;16.98;13.02;;;-0.30;99.90;;;;;;5060900;28;20041;-57
2023/04/07 02:26:01;;;;;;;13.80;10.85;;;-0.40;99.90;;;;;;5061646;28;20028;-57
2023/04/07 02:28:27;;;;;;;15.05;11.90;;;-0.50;99.90;;;;;;5058848;28;20024;-58
2023/04/07 02:30:53;;;;;;;15.40;11.73;;;-0.70;99.90;;;;;;5060992;28;20027;-57
2023/04/07 02:33:18;;;;;;;12.43;11.13;;;-0.80;99.90;;;;;;5061358;28;20385;-58
2023/04/07 02:35:44;;;;;;;15.80;12.20;;;-0.90;99.90;;;;;;5060787;28;20032;-56
2023/04/07 02:38:09;;;;;;;17.58;12.07;;;-1.00;99.90;;;;;;5060861;28;20115;-57
2023/04/07 02:40:35;;;;;;;14.00;11.70;;;-1.00;99.90;;;;;;5061599;28;20060;-56
2023/04/07 02:43:01;;;;;;;15.32;12.20;;;-1.10;99.90;;;;;;5061874;28;20024;-57
2023/04/07 02:45:27;;;;;;;13.60;12.20;;;-1.10;99.90;;;;;;5059757;28;20067;-58
2023/04/07 02:47:52;;;;;;;16.17;12.68;;;-1.10;99.90;;;;;;5062354;28;20056;-58
2023/04/07 02:50:18;;;;;;;23.35;12.85;;;-1.20;99.90;;;;;;5061098;28;20032;-57
2023/04/07 02:52:44;;;;;;;17.73;13.70;;;-1.20;99.90;;;;;;5059252;28;20029;-58
2023/04/07 02:55:10;;;;;;;14.40;12.90;;;-1.20;99.90;;;;;;5059233;28;20545;-57
2023/04/07 02:57:35;;;;;;;18.75;14.10;;;-1.20;99.90;;;;;;5060746;28;20037;-56
2023/04/07 03:00:02;;;;;;;16.73;12.80;;;-1.20;99.90;;;;;;5060063;28;20115;-57
2023/04/07 03:02:27;;;;;;;54.35;18.88;;;-1.20;99.90;;;;;;5060744;28;20074;-56
2023/04/07 03:04:53;;;;;;;34.70;15.25;;;-1.10;99.90;;;;;;5056928;28;20067;-57
2023/04/07 03:07:18;;;;;;;23.05;13.32;;;-1.10;99.90;;;;;;5059715;28;20461;-58
2023/04/07 03:09:44;;;;;;;18.30;12.88;;;-1.10;99.90;;;;;;5058788;28;20022;-58
2023/04/07 03:12:10;;;;;;;17.17;13.85;;;-1.10;99.90;;;;;;5061131;28;20150;-56
2023/04/07 03:14:36;;;;;;;15.35;12.63;;;-1.00;99.90;;;;;;5058222;28;20032;-58
2023/04/07 03:17:02;;;;;;;15.75;12.32;;;-1.00;99.90;;;;;;5060418;28;20493;-57
2023/04/07 03:19:28;;;;;;;19.42;13.38;;;-1.00;99.90;;;;;;5062483;28;20035;-56
2023/04/07 03:21:54;;;;;;;24.50;15.63;;;-1.00;99.90;;;;;;5061107;28;20028;-57
2023/04/07 03:24:19;;;;;;;21.13;14.00;;;-1.00;99.90;;;;;;5059799;28;20039;-57
2023/04/07 03:26:45;;;;;;;19.98;14.23;;;-1.00;99.90;;;;;;5058603;28;20035;-58
2023/04/07 03:29:10;;;;;;;21.63;13.25;;;-1.00;99.90;;;;;;5058779;28;20158;-57
2023/04/07 03:31:36;;;;;;;19.35;14.13;;;-1.00;99.90;;;;;;5058218;28;20052;-58
2023/04/07 03:34:03;;;;;;;14.65;12.68;;;-1.00;99.90;;;;;;5057844;28;20432;-57
2023/04/07 03:36:30;;;;;;;21.40;13.15;;;-1.10;99.90;;;;;;5059541;28;20024;-57
2023/04/07 03:38:56;;;;;;;16.67;13.68;;;-1.10;99.90;;;;;;5056507;28;20540;-58
2023/04/07 03:41:22;;;;;;;14.65;13.15;;;-1.20;99.90;;;;;;5060414;28;20050;-58
2023/04/07 03:43:47;;;;;;;14.30;12.48;;;-1.20;99.90;;;;;;5056334;28;20048;-58
2023/04/07 03:46:13;;;;;;;15.30;12.73;;;-1.20;99.90;;;;;;5058583;28;20031;-57
2023/04/07 03:48:39;;;;;;;17.40;13.43;;;-1.30;99.90;;;;;;5060673;28;20040;-57
2023/04/07 03:51:05;;;;;;;16.45;13.45;;;-1.30;99.90;;;;;;5060432;28;20036;-57
2023/04/07 03:53:31;;;;;;;15.15;12.15;;;-1.30;99.90;;;;;;5059138;28;20016;-57
2023/04/07 03:55:57;;;;;;;14.15;12.35;;;-1.30;99.90;;;;;;5062567;28;20044;-57
2023/04/07 03:58:23;;;;;;;16.77;13.15;;;-1.40;99.90;;;;;;5061037;28;20124;-57
2023/04/07 04:00:48;;;;;;;21.45;12.63;;;-1.40;99.90;;;;;;5058460;28;20086;-58
2023/04/07 04:03:14;;;;;;;22.42;13.35;;;-1.40;99.90;;;;;;5056992;28;20032;-57
2023/04/07 04:05:40;;;;;;;14.25;11.48;;;-1.40;99.90;;;;;;5062974;28;20576;-57
2023/04/07 04:08:05;;;;;;;15.27;11.88;;;-1.40;99.90;;;;;;5062146;28;20300;-57
2023/04/07 04:10:31;;;;;;;13.75;11.98;;;-1.50;99.90;;;;;;5062418;28;20938;-56
2023/04/07 04:12:59;;;;;;;13.55;11.80;;;-1.50;99.90;;;;;;5062237;28;20024;-58
2023/04/07 04:15:25;;;;;;;13.57;11.60;;;-1.50;99.90;;;;;;5061585;28;20050;-60
2023/04/07 04:17:51;;;;;;;15.35;12.23;;;-1.50;99.90;;;;;;5064029;28;20397;-57
2023/04/07 04:20:17;;;;;;;16.08;12.45;;;-1.50;99.90;;;;;;5064413;28;20040;-57
2023/04/07 04:22:42;;;;;;;16.45;12.52;;;-1.50;99.90;;;;;;5063856;28;20032;-56
2023/04/07 04:25:08;;;;;;;11.90;10.73;;;-1.50;99.90;;;;;;5062960;28;20024;-56
2023/04/07 04:27:34;;;;;;;13.07;11.77;;;-1.60;99.90;;;;;;5062160;28;20025;-57
2023/04/07 04:30:00;;;;;;;15.93;11.15;;;-1.60;99.90;;;;;;5064888;28;20051;-56
2023/04/07 04:32:25;;;;;;;15.40;12.45;;;-1.60;99.90;;;;;;5063509;28;20033;-55
2023/04/07 04:34:51;;;;;;;13.52;11.13;;;-1.60;99.90;;;;;;5062046;28;20033;-57
2023/04/07 04:37:16;;;;;;;15.48;11.57;;;-1.70;99.90;;;;;;5062383;28;20383;-56
2023/04/07 04:39:42;;;;;;;14.10;12.30;;;-1.70;99.90;;;;;;5062060;28;20020;-57
2023/04/07 04:42:08;;;;;;;14.07;11.48;;;-1.70;99.90;;;;;;5061713;28;20120;-57
2023/04/07 04:44:33;;;;;;;13.95;11.80;;;-1.70;99.90;;;;;;5061185;28;20055;-57
2023/04/07 04:46:59;;;;;;;12.52;11.20;;;-1.70;99.90;;;;;;5062455;28;20036;-56
2023/04/07 04:49:25;;;;;;;12.73;11.15;;;-1.70;99.90;;;;;;5062096;28;20108;-58
2023/04/07 04:51:51;;;;;;;12.88;11.52;;;-1.70;99.90;;;;;;5065963;28;20033;-58
2023/04/07 04:54:18;;;;;;;13.25;11.68;;;-1.70;99.90;;;;;;5062627;28;20040;-57
2023/04/07 04:56:43;;;;;;;12.88;11.57;;;-1.70;99.90;;;;;;5058942;28;20040;-57
2023/04/07 04:59:09;;;;;;;13.10;11.52;;;-1.70;99.90;;;;;;5063175;28;20055;-56
2023/04/07 05:01:35;;;;;;;14.80;12.90;;;-1.70;99.90;;;;;;5062768;28;20033;-58
2023/04/07 05:04:01;;;;;;;15.20;11.68;;;-1.80;99.90;;;;;;5063309;28;20025;-58
2023/04/07 05:06:26;;;;;;;17.13;15.32;;;-1.70;99.90;;;;;;5064422;28;20043;-57
2023/04/07 05:08:52;;;;;;;14.85;13.40;;;-1.70;99.90;;;;;;5060857;28;20032;-58
2023/04/07 05:11:18;;;;;;;14.10;12.45;;;-1.70;99.90;;;;;;5065970;28;20051;-57
2023/04/07 05:13:44;;;;;;;20.27;13.73;;;-1.70;99.90;;;;;;5062346;28;20024;-56
2023/04/07 05:16:09;;;;;;;17.27;12.65;;;-1.60;99.90;;;;;;5062179;28;20021;-58
2023/04/07 05:18:35;;;;;;;14.95;13.15;;;-1.60;99.90;;;;;;5063218;28;20025;-56
2023/04/07 05:21:01;;;;;;;17.20;14.10;;;-1.50;99.90;;;;;;5061908;28;20711;-57
2023/04/07 05:23:26;;;;;;;15.10;13.60;;;-1.50;99.90;;;;;;5062041;28;20048;-56
2023/04/07 05:25:52;;;;;;;15.07;12.00;;;-1.50;99.90;;;;;;5063823;28;20025;-58
2023/04/07 05:28:18;;;;;;;15.32;12.10;;;-1.40;99.90;;;;;;5061725;28;20028;-58
2023/04/07 05:30:44;;;;;;;15.93;11.30;;;-1.40;99.90;;;;;;5064385;28;20024;-57
2023/04/07 05:33:10;;;;;;;16.20;11.45;;;-1.30;99.90;;;;;;5062403;28;20071;-57
2023/04/07 05:35:35;;;;;;;15.30;11.43;;;-1.30;99.90;;;;;;5061897;28;20481;-57
2023/04/07 05:38:01;;;;;;;12.68;10.85;;;-1.20;99.90;;;;;;5062531;28;20033;-57
2023/04/07 05:40:29;;;;;;;14.02;10.98;;;-1.20;99.90;;;;;;5063234;28;20013;-57
2023/04/07 05:42:54;;;;;;;12.52;10.98;;;-1.10;99.90;;;;;;5065347;28;20056;-58
2023/04/07 05:45:20;;;;;;;16.73;11.35;;;-1.10;99.90;;;;;;5061191;28;20060;-58
2023/04/07 05:47:48;;;;;;;13.50;11.52;;;-1.00;99.90;;;;;;5060040;28;20036;-57
2023/04/07 05:50:14;;;;;;;12.73;11.23;;;-1.00;99.90;;;;;;5059553;28;20029;-57
2023/04/07 05:52:40;;;;;;;14.30;11.52;;;-0.90;99.90;;;;;;5059950;28;20086;-58
2023/04/07 05:55:06;;;;;;;14.25;11.98;;;-0.90;99.90;;;;;;5060461;28;20474;-57
2023/04/07 05:57:33;;;;;;;12.98;11.20;;;-0.90;99.90;;;;;;5061906;28;20493;-59
2023/04/07 05:59:58;;;;;;;17.13;11.05;;;-0.80;99.90;;;;;;5059329;28;20564;-56
2023/04/07 06:02:24;;;;;;;13.32;11.80;;;-0.70;99.90;;;;;;5066766;28;20067;-58
2023/04/07 06:04:49;;;;;;;14.52;10.73;;;-0.70;99.90;;;;;;5060392;28;20051;-58
2023/04/07 06:07:15;;;;;;;14.82;11.93;;;-0.60;99.90;;;;;;5057195;28;20020;-57
2023/04/07 06:09:41;;;;;;;14.93;11.48;;;-0.50;99.90;;;;;;5063363;28;20374;-57
2023/04/07 06:12:08;;;;;;;13.38;11.20;;;-0.40;99.90;;;;;;5060802;28;20067;-56
2023/04/07 06:14:34;;;;;;;15.45;11.80;;;-0.40;99.90;;;;;;5062481;28;20036;-58
2023/04/07 06:17:00;;;;;;;15.40;13.10;;;-0.30;99.90;;;;;;5061876;28;20075;-58
2023/04/07 06:19:26;;;;;;;14.30;12.55;;;-0.30;99.90;;;;;;5064223;28;20048;-58
2023/04/07 06:21:52;;;;;;;21.63;14.00;;;-0.20;99.90;;;;;;5065303;28;20031;-56
2023/04/07 06:24:21;;;;;;;16.83;13.05;;;-0.20;99.90;;;;;;5060323;28;20033;-58
2023/04/07 06:26:47;;;;;;;13.82;12.35;;;-0.10;99.90;;;;;;5064790;28;20535;-58
2023/04/07 06:29:13;;;;;;;17.52;12.90;;;-0.10;99.90;;;;;;5059986;28;20079;-58
2023/04/07 06:31:39;;;;;;;14.75;11.55;;;0.00;99.90;;;;;;5061046;28;20036;-57
2023/04/07 06:34:05;;;;;;;12.80;11.07;;;0.10;99.90;;;;;;5064288;28;20028;-58
2023/04/07 06:36:31;;;;;;;19.10;11.88;;;0.20;99.90;;;;;;5062550;28;20446;-58
2023/04/07 06:38:57;;;;;;;13.88;11.48;;;0.30;99.90;;;;;;5062617;28;20751;-58
2023/04/07 06:41:23;;;;;;;14.30;11.40;;;0.40;99.90;;;;;;5062351;28;20131;-58
2023/04/07 06:43:52;;;;;;;13.02;10.35;;;0.60;99.90;;;;;;5061213;28;20120;-59
2023/04/07 06:46:18;;;;;;;13.38;10.75;;;0.70;99.90;;;;;;5058488;28;20028;-57
2023/04/07 06:48:44;;;;;;;12.82;11.52;;;0.80;99.90;;;;;;5060053;28;20096;-57
2023/04/07 06:51:10;;;;;;;13.02;11.13;;;1.00;99.90;;;;;;5058886;28;20144;-58
2023/04/07 06:53:36;;;;;;;13.85;12.40;;;1.10;99.90;;;;;;5061343;28;20048;-57
2023/04/07 06:56:06;;;;;;;13.63;12.23;;;1.20;99.90;;;;;;5062744;28;20513;-57
2023/04/07 06:58:31;;;;;;;13.70;10.90;;;1.30;99.90;;;;;;5059708;28;20025;-58
2023/04/07 07:00:57;;;;;;;15.43;12.90;;;1.30;99.90;;;;;;5061798;28;20518;-57
2023/04/07 07:03:22;;;;;;;16.15;11.40;;;1.50;99.90;;;;;;5059965;28;20025;-58
2023/04/07 07:05:48;;;;;;;13.30;11.00;;;1.60;99.90;;;;;;5060114;28;20040;-58
2023/04/07 07:08:14;;;;;;;11.57;10.45;;;1.80;99.90;;;;;;5058063;28;20029;-58
2023/04/07 07:10:40;;;;;;;13.65;11.77;;;1.90;99.90;;;;;;5061549;28;20087;-59
2023/04/07 07:13:05;;;;;;;13.23;10.15;;;2.00;99.90;;;;;;5061190;28;20082;-58
2023/04/07 07:15:31;;;;;;;13.07;11.45;;;2.20;99.90;;;;;;5059783;28;20041;-59
2023/04/07 07:17:56;;;;;;;11.35;10.25;;;2.20;99.90;;;;;;5060526;28;20056;-58
2023/04/07 07:20:24;;;;;;;11.80;10.60;;;2.40;99.90;;;;;;5060351;28;20132;-58
2023/04/07 07:22:50;;;;;;;11.57;9.45;;;2.50;99.90;;;;;;5058204;28;20037;-58
2023/04/07 07:25:15;;;;;;;15.32;10.55;;;2.70;99.90;;;;;;5059614;28;20030;-57
2023/04/07 07:27:41;;;;;;;11.88;10.60;;;2.90;99.90;;;;;;5061577;28;20063;-59
2023/04/07 07:30:07;;;;;;;12.20;10.93;;;3.10;99.90;;;;;;5059761;28;20139;-59
2023/04/07 07:32:33;;;;;;;13.50;10.23;;;3.30;99.90;;;;;;5059188;28;20025;-57
2023/04/07 07:34:58;;;;;;;11.65;10.45;;;3.50;99.90;;;;;;5060499;28;20071;-59
2023/04/07 07:37:24;;;;;;;11.93;10.60;;;3.60;99.90;;;;;;5058859;28;20488;-58
2023/04/07 07:39:50;;;;;;;13.35;11.02;;;3.70;99.90;;;;;;5064020;28;20399;-58
2023/04/07 07:42:15;;;;;;;17.10;10.07;;;3.90;99.90;;;;;;5059975;28;20044;-56
2023/04/07 07:44:41;;;;;;;11.48;9.85;;;4.00;99.90;;;;;;5063033;28;20557;-57
2023/04/07 07:47:07;;;;;;;11.95;10.18;;;4.20;99.90;;;;;;5059789;28;20580;-57
2023/04/07 07:49:32;;;;;;;13.35;10.68;;;4.30;99.90;;;;;;5062283;28;20090;-58
2023/04/07 07:51:58;;;;;;;11.43;9.85;;;4.50;99.90;;;;;;5060315;28;20053;-58
2023/04/07 07:54:24;;;;;;;10.68;9.57;;;4.60;99.90;;;;;;5058656;28;20021;-57
2023/04/07 07:56:51;;;;;;;12.25;10.48;;;4.70;99.90;;;;;;5060954;28;20503;-58
2023/04/07 07:59:16;;;;;;;12.40;9.48;;;4.80;99.90;;;;;;5059469;28;20066;-58
2023/04/07 08:01:42;;;;;;;14.38;11.00;;;5.00;99.90;;;;;;5061536;28;20119;-57
2023/04/07 08:04:07;;;;;;;11.00;10.00;;;5.10;99.90;;;;;;5060169;28;20036;-57
2023/04/07 08:06:33;;;;;;;12.60;11.32;;;5.20;99.90;;;;;;5054842;28;20159;-57
2023/04/07 08:08:59;;;;;;;14.57;10.05;;;5.30;99.90;;;;;;5056688;28;20524;-57
2023/04/07 08:11:24;;;;;;;11.45;10.35;;;5.50;99.90;;;;;;5059026;28;20025;-58
2023/04/07 08:13:52;;;;;;;11.55;9.82;;;5.70;99.90;;;;;;5059982;28;20037;-57
2023/04/07 08:16:18;;;;;;;11.43;10.20;;;5.90;99.10;;;;;;5062063;28;20036;-58
2023/04/07 08:18:44;;;;;;;11.45;9.90;;;6.00;97.70;;;;;;5062304;28;20029;-57
2023/04/07 08:21:10;;;;;;;11.13;9.98;;;6.10;96.70;;;;;;5058466;28;20575;-59
2023/04/07 08:23:35;;;;;;;15.77;10.80;;;6.30;99.40;;;;;;5056639;28;20634;-58
2023/04/07 08:26:01;;;;;;;13.52;10.63;;;6.50;96.60;;;;;;5063818;28;20033;-58
2023/04/07 08:28:26;;;;;;;12.15;10.60;;;6.60;94.10;;;;;;5061951;28;20507;-58
2023/04/07 08:30:52;;;;;;;11.93;10.63;;;6.60;94.00;;;;;;5057359;28;20009;-59
2023/04/07 08:33:18;;;;;;;12.10;10.65;;;6.70;94.30;;;;;;5059029;28;20040;-57
2023/04/07 08:35:43;;;;;;;13.07;11.15;;;6.80;93.10;;;;;;5059542;28;20025;-58
2023/04/07 08:38:09;;;;;;;11.45;10.23;;;6.90;94.20;;;;;;5059043;28;20043;-57
2023/04/07 08:40:35;;;;;;;11.90;10.40;;;7.00;94.20;;;;;;5060345;28;20041;-58
2023/04/07 08:43:07;;;;;;;12.00;10.80;;;7.20;94.30;;;;;;5058538;28;20104;-58
2023/04/07 08:45:33;;;;;;;12.77;11.43;;;7.30;92.40;;;;;;5057352;28;20033;-58
2023/04/07 08:48:03;;;;;;;11.38;10.27;;;7.40;91.70;;;;;;5058609;28;20048;-58
2023/04/07 08:50:30;;;;;;;12.32;11.13;;;7.60;93.30;;;;;;5067408;28;20699;-57
2023/04/07 08:53:01;;;;;;;11.82;10.45;;;7.70;92.10;;;;;;5061093;28;20103;-59
2023/04/07 08:55:26;;;;;;;12.57;11.15;;;7.90;91.20;;;;;;5060504;28;20043;-58
2023/04/07 08:57:53;;;;;;;12.75;11.45;;;8.00;91.00;;;;;;5062554;28;20032;-59
2023/04/07 09:00:19;;;;;;;11.65;10.32;;;8.10;89.90;;;;;;5063300;28;20025;-59
2023/04/07 09:02:48;;;;;;;13.93;12.52;;;8.30;90.20;;;;;;5061255;28;20036;-57
2023/04/07 09:05:13;;;;;;;14.60;10.73;;;8.40;88.30;;;;;;5062557;28;20563;-59
2023/04/07 09:07:39;;;;;;;12.25;10.68;;;8.60;83.20;;;;;;5063628;28;20139;-59
2023/04/07 09:10:06;;;;;;;14.63;11.00;;;8.90;90.50;;;;;;5059730;28;20106;-59
2023/04/07 09:12:32;;;;;;;13.75;10.27;;;9.30;86.10;;;;;;5074864;28;20021;-59
2023/04/07 09:14:58;;;;;;;12.32;11.13;;;10.00;82.60;;;;;;5061028;28;21029;-58
2023/04/07 09:17:26;;;;;;;12.20;10.38;;;11.20;83.30;;;;;;5062292;28;20123;-59
2023/04/07 09:19:55;;;;;;;11.35;10.23;;;12.60;71.90;;;;;;5061434;28;20078;-59
2023/04/07 09:22:38;;;;;;;13.45;10.73;;;13.90;66.50;;;;;;5059630;28;20492;-58
2023/04/07 09:25:15;;;;;;;11.50;10.40;;;14.80;59.60;;;;;;5063341;28;20534;-59
2023/04/07 09:28:00;;;;;;;11.55;10.05;;;16.20;58.30;;;;;;5061462;28;20412;-60
2023/04/07 09:30:27;;;;;;;12.38;11.38;;;17.50;54.20;;;;;;5066645;28;20020;-59
2023/04/07 09:32:53;;;;;;;10.63;9.73;;;17.60;54.70;;;;;;5058788;28;20028;-59
2023/04/07 09:35:21;;;;;;;11.38;10.48;;;18.10;54.60;;;;;;5059171;28;20039;-60
2023/04/07 09:38:07;;;;;;;10.40;9.40;;;18.80;52.10;;;;;;5062823;28;20032;-61
2023/04/07 09:40:34;;;;;;;11.43;10.32;;;19.60;46.20;;;;;;5058554;28;20028;-59
2023/04/07 09:43:02;;;;;;;11.27;10.38;;;19.90;48.30;;;;;;5062236;28;20036;-61
2023/04/07 09:45:31;;;;;;;11.98;10.98;;;20.20;46.40;;;;;;5057003;28;20067;-60
2023/04/07 09:47:56;;;;;;;10.52;9.68;;;20.30;45.20;;;;;;5062344;28;20480;-60
2023/04/07 09:50:39;;;;;;;11.10;10.20;;;20.50;45.60;;;;;;5059947;28;20115;-59
2023/04/07 09:53:05;;;;;;;11.30;10.25;;;20.60;44.10;;;;;;5062914;28;20041;-59
2023/04/07 09:55:32;;;;;;;11.50;10.60;;;20.20;45.90;;;;;;5061153;28;20023;-59
2023/04/07 09:57:59;;;;;;;10.95;10.05;;;19.90;48.50;;;;;;5063444;28;20652;-59
2023/04/07 10:00:25;;;;;;;11.43;10.45;;;20.10;48.50;;;;;;5059637;28;20047;-61
2023/04/07 10:02:51;;;;;;;10.25;9.45;;;19.80;49.00;;;;;;5061300;28;20037;-61
2023/04/07 10:05:20;;;;;;;11.05;10.05;;;19.60;49.10;;;;;;5061212;28;20091;-59
2023/04/07 10:07:46;;;;;;;11.13;10.13;;;19.70;49.00;;;;;;5060233;28;20504;-59
2023/04/07 10:10:12;;;;;;;10.45;9.60;;;19.20;50.30;;;;;;5060780;28;20021;-60
2023/04/07 10:12:40;;;;;;;11.57;10.57;;;19.00;49.50;;;;;;5061203;28;20029;-58
2023/04/07 10:15:06;;;;;;;11.00;10.07;;;18.80;50.80;;;;;;5058873;28;20032;-59
2023/04/07 10:17:35;;;;;;;11.57;10.57;;;18.70;48.00;;;;;;5061427;28;20090;-59
2023/04/07 10:20:03;;;;;;;11.40;10.48;;;18.50;44.60;;;;;;5058607;28;20041;-60
2023/04/07 10:22:30;;;;;;;12.07;10.98;;;18.00;50.30;;;;;;5061453;28;20472;-59
2023/04/07 10:25:01;;;;;;;11.73;10.63;;;17.70;50.90;;;;;;5061740;28;20037;-59
2023/04/07 10:27:35;;;;;;;11.63;10.52;;;17.30;48.10;;;;;;5060032;28;20032;-59
2023/04/07 10:30:05;;;;;;;12.82;11.70;;;17.20;49.80;;;;;;5060240;28;20028;-59
2023/04/07 10:32:31;;;;;;;11.73;10.63;;;17.00;51.70;;;;;;5059606;28;20025;-59
2023/04/07 10:34:58;;;;;;;12.43;11.20;;;16.60;47.90;;;;;;5060823;28;20036;-58
2023/04/07 10:37:24;;;;;;;13.95;11.10;;;16.50;51.80;;;;;;5057070;28;20028;-60
2023/04/07 10:40:09;;;;;;;12.32;11.20;;;16.50;50.60;;;;;;5054796;28;20032;-60
2023/04/07 10:42:37;;;;;;;12.40;11.30;;;16.90;48.20;;;;;;5058883;28;20579;-58
2023/04/07 10:45:05;;;;;;;12.82;11.63;;;17.20;48.70;;;;;;5058624;28;20067;-59
2023/04/07 10:47:31;;;;;;;13.30;11.77;;;17.50;47.20;;;;;;5057927;28;20043;-58
2023/04/07 10:50:17;;;;;;;11.93;10.70;;;17.50;49.40;;;;;;5060554;28;20584;-58
2023/04/07 10:52:45;;;;;;;11.98;10.82;;;17.60;50.30;;;;;;5055798;28;20036;-59
2023/04/07 10:55:32;;;;;;;12.05;10.73;;;17.40;48.60;;;;;;5058476;28;20037;-60
2023/04/07 10:58:30;;;;;;;12.40;11.20;;;17.40;51.50;;;;;;5058896;28;20033;-58
2023/04/07 11:01:02;;;;;;;12.52;11.30;;;16.90;48.20;;;;;;5058440;28;20046;-59
2023/04/07 11:03:38;;;;;;;12.20;10.98;;;16.60;47.80;;;;;;5056977;28;20033;-59
2023/04/07 11:06:04;;;;;;;12.32;11.00;;;16.80;49.70;;;;;;5058191;28;20145;-59
2023/04/07 11:08:37;;;;;;;12.52;11.30;;;16.70;50.00;;;;;;5058596;28;20108;-60
2023/04/07 11:11:08;;;;;;;12.68;11.38;;;16.60;53.60;;;;;;5060252;28;20025;-59
2023/04/07 11:13:40;;;;;;;13.00;11.65;;;16.40;53.30;;;;;;5060399;28;20032;-60
2023/04/07 11:16:06;;;;;;;11.82;10.50;;;16.30;46.80;;;;;;5059449;28;20029;-60
2023/04/07 11:18:32;;;;;;;13.13;11.93;;;16.20;50.00;;;;;;5059122;28;20039;-59
2023/04/07 11:20:58;;;;;;;12.98;11.73;;;16.00;51.60;;;;;;5058475;28;20454;-59
2023/04/07 11:23:26;;;;;;;13.65;11.13;;;15.70;51.60;;;;;;5060210;28;20115;-59
2023/04/07 11:25:53;;;;;;;11.73;10.55;;;15.70;50.90;;;;;;5058982;28;20039;-59
2023/04/07 11:28:19;;;;;;;10.38;9.38;;;15.70;51.70;;;;;;5061358;28;20089;-59
2023/04/07 11:30:52;;;;;;;11.40;10.30;;;15.80;57.10;;;;;;5057428;28;20480;-60
2023/04/07 11:33:30;;;;;;;14.30;10.30;;;15.80;50.80;;;;;;5060877;28;20074;-59
2023/04/07 11:35:58;;;;;;;11.20;10.15;;;16.00;50.50;;;;;;5060929;28;20396;-60
2023/04/07 11:38:26;;;;;;;11.65;10.55;;;16.00;51.60;;;;;;5057571;28;20056;-59
2023/04/07 11:40:54;;;;;;;12.25;11.10;;;15.80;51.30;;;;;;5060708;28;20646;-59
2023/04/07 11:43:21;;;;;;;11.40;10.32;;;15.80;48.60;;;;;;5061246;28;20024;-60
2023/04/07 11:46:04;;;;;;;11.13;10.15;;;15.70;48.60;;;;;;5058204;28;20111;-60
2023/04/07 11:48:31;;;;;;;10.70;9.70;;;15.80;47.90;;;;;;5058437;28;20035;-58
2023/04/07 11:50:58;;;;;;;11.13;10.07;;;16.00;46.20;;;;;;5058881;28;20036;-58
2023/04/07 11:53:36;;;;;;;11.35;10.35;;;16.10;46.70;;;;;;5058631;28;20041;-59
2023/04/07 11:56:15;;;;;;;10.77;9.77;;;15.80;47.60;;;;;;5058887;28;20033;-59
2023/04/07 11:58:51;;;;;;;18.23;10.77;;;15.70;48.60;;;;;;5059855;28;20124;-59
2023/04/07 12:01:18;;;;;;;11.90;10.70;;;15.50;48.30;;;;;;5060616;28;20028;-58
2023/04/07 12:04:02;;;;;;;12.10;10.57;;;15.30;51.70;;;;;;5061258;28;20020;-59
2023/04/07 12:06:29;;;;;;;11.57;10.38;;;15.20;50.30;;;;;;5060363;28;20075;-59
2023/04/07 12:08:55;;;;;;;11.82;10.60;;;15.00;56.20;;;;;;5060097;28;20078;-58
2023/04/07 12:11:20;;;;;;;12.30;10.60;;;14.90;54.30;;;;;;5056580;28;20025;-58
2023/04/07 12:13:46;;;;;;;10.68;9.77;;;14.80;54.70;;;;;;5056584;28;20123;-59
2023/04/07 12:16:12;;;;;;;11.80;10.70;;;14.70;52.90;;;;;;5058603;28;20490;-58
2023/04/07 12:18:37;;;;;;;11.45;10.20;;;14.80;55.30;;;;;;5058113;28;20136;-59
2023/04/07 12:21:03;;;;;;;12.23;11.02;;;15.00;53.50;;;;;;5060462;28;20047;-59
2023/04/07 12:23:29;;;;;;;12.05;10.63;;;15.10;51.30;;;;;;5058375;28;20025;-59
2023/04/07 12:25:55;;;;;;;13.85;10.52;;;15.10;49.70;;;;;;5062958;28;20048;-58
2023/04/07 12:28:20;;;;;;;10.65;9.55;;;15.10;53.80;;;;;;5066561;28;20029;-59
2023/04/07 12:30:46;;;;;;;10.68;9.68;;;15.50;52.90;;;;;;5064097;28;20020;-60
2023/04/07 12:33:12;;;;;;;13.75;10.40;;;15.90;56.10;;;;;;5062603;28;20603;-58